Time;durP1;ratioP1;P1;durP2;ratioP2;P2;SDS_P1;SDS_P2;PMS_P1;PMS_P2;Temp;Humidity;BMP_temperature;BMP_pressure;BME280_temperature;BME280_humidity;BME280_pressure;Samples;Min_cycle;Max_cycle;Signal;HPM_P1;HPM_P2
2020/12/25 00:03:01;;;;;;;7.07;6.17;;;;;;;;;;5108697;27;20513;-80
2020/12/25 00:05:26;;;;;;;8.73;6.37;;;;;;;;;;5093650;28;20293;-80
2020/12/25 00:07:53;;;;;;;9.20;7.00;;;;;;;;;;5090120;28;20170;-80
2020/12/25 00:10:18;;;;;;;9.37;7.10;;;;;;;;;;5090089;28;20177;-80
2020/12/25 00:12:44;;;;;;;7.73;6.60;;;;;;;;;;5090105;28;20521;-80
2020/12/25 00:15:09;;;;;;;8.93;7.40;;;;;;;;;;5089997;28;20166;-81
2020/12/25 00:17:35;;;;;;;9.60;7.47;;;;;;;;;;5089702;28;20174;-81
2020/12/25 00:20:00;;;;;;;9.60;7.93;;;;;;;;;;5089572;28;20158;-81
2020/12/25 00:22:25;;;;;;;7.87;7.07;;;;;;;;;;5089822;28;20190;-81
2020/12/25 00:24:51;;;;;;;7.53;6.73;;;;;;;;;;5089812;28;20684;-81
2020/12/25 00:27:16;;;;;;;14.13;8.20;;;;;;;;;;5089490;28;20632;-81
2020/12/25 00:29:41;;;;;;;12.73;8.67;;;;;;;;;;5089743;28;20525;-81
2020/12/25 00:32:07;;;;;;;7.00;5.60;;;;;;;;;;5089489;28;20170;-80
2020/12/25 00:34:32;;;;;;;9.33;7.00;;;;;;;;;;5089356;28;20171;-81
2020/12/25 00:36:57;;;;;;;7.63;6.00;;;;;;;;;;5089837;28;20255;-81
2020/12/25 00:39:23;;;;;;;7.93;5.97;;;;;;;;;;5089793;28;20171;-81
2020/12/25 00:41:49;;;;;;;7.20;6.07;;;;;;;;;;5089550;28;20548;-81
2020/12/25 00:44:14;;;;;;;8.03;6.40;;;;;;;;;;5089732;28;20220;-80
2020/12/25 00:46:40;;;;;;;7.17;6.47;;;;;;;;;;5089338;28;20543;-80
2020/12/25 00:49:06;;;;;;;6.97;6.00;;;;;;;;;;5089319;28;20194;-81
2020/12/25 00:51:32;;;;;;;6.80;6.10;;;;;;;;;;5089038;28;20167;-81
2020/12/25 00:53:57;;;;;;;7.00;6.30;;;;;;;;;;5088960;28;20169;-81
2020/12/25 00:56:22;;;;;;;6.20;5.60;;;;;;;;;;5089235;28;20171;-81
2020/12/25 00:58:48;;;;;;;6.43;5.60;;;;;;;;;;5088835;28;20163;-81
2020/12/25 01:01:14;;;;;;;5.87;5.33;;;;;;;;;;5094185;28;20244;-80
2020/12/25 01:03:40;;;;;;;5.53;5.00;;;;;;;;;;5109268;28;20166;-80
2020/12/25 01:06:12;;;;;;;6.17;5.53;;;;;;;;;;5109327;28;20181;-80
2020/12/25 01:08:37;;;;;;;5.83;5.23;;;;;;;;;;5109270;28;20170;-80
2020/12/25 01:11:03;;;;;;;6.43;5.27;;;;;;;;;;5109245;28;20177;-81
2020/12/25 01:13:28;;;;;;;5.23;4.73;;;;;;;;;;5100134;28;20561;-81
2020/12/25 01:15:54;;;;;;;5.27;4.77;;;;;;;;;;5095541;28;20177;-80
2020/12/25 01:18:19;;;;;;;5.53;5.00;;;;;;;;;;5095358;28;20250;-80
2020/12/25 01:20:44;;;;;;;5.27;4.77;;;;;;;;;;5095354;28;20173;-80
2020/12/25 01:23:10;;;;;;;5.20;4.70;;;;;;;;;;5095081;28;20224;-80
2020/12/25 01:25:35;;;;;;;5.77;5.20;;;;;;;;;;5095104;28;20170;-80
2020/12/25 01:28:00;;;;;;;6.30;5.27;;;;;;;;;;5095053;28;20257;-81
2020/12/25 01:30:26;;;;;;;4.33;3.93;;;;;;;;;;5095289;28;20617;-80
2020/12/25 01:32:51;;;;;;;5.37;4.50;;;;;;;;;;5094923;28;20189;-81
2020/12/25 01:35:17;;;;;;;5.17;4.67;;;;;;;;;;5095200;28;20231;-80
2020/12/25 01:37:42;;;;;;;5.80;4.97;;;;;;;;;;5095145;28;20166;-80
2020/12/25 01:40:08;;;;;;;8.47;6.57;;;;;;;;;;5076941;28;20170;-80
2020/12/25 01:42:33;;;;;;;14.07;8.40;;;;;;;;;;5094988;28;20247;-80
2020/12/25 01:44:59;;;;;;;6.93;5.60;;;;;;;;;;5095221;28;20167;-80
2020/12/25 01:47:24;;;;;;;9.03;5.97;;;;;;;;;;5095047;28;20174;-81
2020/12/25 01:49:49;;;;;;;8.70;5.60;;;;;;;;;;5094896;28;20170;-80
2020/12/25 01:52:15;;;;;;;5.10;4.20;;;;;;;;;;5094821;28;20253;-80
2020/12/25 01:54:43;;;;;;;4.90;4.37;;;;;;;;;;5094601;28;20198;-80
2020/12/25 01:57:09;;;;;;;4.63;4.20;;;;;;;;;;5094505;28;20195;-80
2020/12/25 01:59:34;;;;;;;4.97;4.37;;;;;;;;;;5094491;28;20170;-81
2020/12/25 02:02:00;;;;;;;4.60;3.90;;;;;;;;;;5094621;28;20226;-80
2020/12/25 02:04:25;;;;;;;4.67;4.20;;;;;;;;;;5094161;28;20606;-80
2020/12/25 02:06:51;;;;;;;4.67;3.97;;;;;;;;;;5094385;28;20163;-80
2020/12/25 02:09:17;;;;;;;5.57;4.50;;;;;;;;;;5094408;28;20171;-81
2020/12/25 02:11:42;;;;;;;4.40;4.00;;;;;;;;;;5094196;28;20192;-81
2020/12/25 02:14:07;;;;;;;4.80;4.30;;;;;;;;;;5094157;28;20174;-81
2020/12/25 02:16:33;;;;;;;5.40;4.40;;;;;;;;;;5094294;28;20220;-81
2020/12/25 02:18:58;;;;;;;5.37;4.80;;;;;;;;;;5094571;28;20692;-81
2020/12/25 02:21:24;;;;;;;5.13;4.63;;;;;;;;;;5094479;28;20203;-81
2020/12/25 02:23:49;;;;;;;5.63;5.00;;;;;;;;;;5093874;28;20506;-81
2020/12/25 02:26:14;;;;;;;12.33;7.67;;;;;;;;;;5093362;28;20227;-81
2020/12/25 02:28:41;;;;;;;6.00;5.10;;;;;;;;;;5094323;28;20171;-81
2020/12/25 02:31:06;;;;;;;10.83;7.07;;;;;;;;;;5094145;28;20323;-81
2020/12/25 02:33:31;;;;;;;6.10;5.23;;;;;;;;;;5094417;28;20617;-81
2020/12/25 02:35:57;;;;;;;6.23;5.40;;;;;;;;;;5093786;28;20174;-81
2020/12/25 02:38:22;;;;;;;8.30;6.37;;;;;;;;;;5075450;28;20275;-80
2020/12/25 02:40:47;;;;;;;9.83;6.13;;;;;;;;;;5093921;28;20251;-80
2020/12/25 02:43:13;;;;;;;7.50;6.00;;;;;;;;;;5094081;28;20180;-80
2020/12/25 02:45:38;;;;;;;12.27;7.60;;;;;;;;;;5093916;28;20292;-80
2020/12/25 02:48:04;;;;;;;13.80;7.73;;;;;;;;;;5094041;28;20173;-80
2020/12/25 02:50:29;;;;;;;7.93;6.27;;;;;;;;;;5093772;28;20693;-80
2020/12/25 02:52:54;;;;;;;6.53;5.33;;;;;;;;;;5093146;28;20171;-81
2020/12/25 02:55:20;;;;;;;12.60;8.33;;;;;;;;;;5093230;28;20167;-80
2020/12/25 02:57:45;;;;;;;10.70;7.97;;;;;;;;;;5093383;28;20194;-80
2020/12/25 03:00:10;;;;;;;10.13;6.17;;;;;;;;;;5093857;28;20167;-80
2020/12/25 03:02:35;;;;;;;10.23;7.30;;;;;;;;;;5093251;28;20256;-80
2020/12/25 03:05:01;;;;;;;14.70;9.20;;;;;;;;;;5093439;28;20573;-79
2020/12/25 03:07:27;;;;;;;15.97;10.57;;;;;;;;;;5093156;28;20727;-80
2020/12/25 03:09:52;;;;;;;11.00;8.60;;;;;;;;;;5093468;28;20216;-80
2020/12/25 03:12:17;;;;;;;9.33;6.80;;;;;;;;;;5093160;28;20171;-81
2020/12/25 03:14:43;;;;;;;11.13;7.67;;;;;;;;;;5093499;28;20222;-81
2020/12/25 03:17:08;;;;;;;7.53;6.30;;;;;;;;;;5093457;28;20181;-84
2020/12/25 03:19:33;;;;;;;8.00;6.40;;;;;;;;;;5093769;28;20496;-80
2020/12/25 03:21:59;;;;;;;7.00;6.20;;;;;;;;;;5092861;28;20289;-80
2020/12/25 03:24:24;;;;;;;8.03;7.00;;;;;;;;;;5092842;28;20170;-80
2020/12/25 03:26:49;;;;;;;7.83;6.80;;;;;;;;;;5092896;28;20182;-80
2020/12/25 03:29:15;;;;;;;11.47;8.47;;;;;;;;;;5092852;28;20254;-80
2020/12/25 03:31:40;;;;;;;9.30;7.33;;;;;;;;;;5093105;28;20606;-82
2020/12/25 03:34:06;;;;;;;9.80;7.70;;;;;;;;;;5093584;28;20173;-81
2020/12/25 03:36:32;;;;;;;10.43;7.30;;;;;;;;;;5092811;28;20546;-81
2020/12/25 03:38:57;;;;;;;9.63;6.83;;;;;;;;;;5092941;28;20186;-80
2020/12/25 03:41:22;;;;;;;7.67;6.33;;;;;;;;;;5092606;28;20542;-80
2020/12/25 03:43:48;;;;;;;8.87;6.57;;;;;;;;;;5092626;28;20204;-81
2020/12/25 03:46:13;;;;;;;11.97;7.77;;;;;;;;;;5092934;28;20609;-81
2020/12/25 03:48:39;;;;;;;11.80;7.40;;;;;;;;;;5092856;28;20197;-81
2020/12/25 03:51:05;;;;;;;8.53;6.23;;;;;;;;;;5092840;28;20203;-80
2020/12/25 03:53:30;;;;;;;8.87;7.17;;;;;;;;;;5092525;28;20736;-81
2020/12/25 03:55:55;;;;;;;9.10;7.00;;;;;;;;;;5092422;28;20158;-81
2020/12/25 03:58:21;;;;;;;11.03;7.27;;;;;;;;;;5092463;28;20624;-80
2020/12/25 04:00:46;;;;;;;12.63;7.37;;;;;;;;;;5092513;28;20163;-81
2020/12/25 04:03:12;;;;;;;11.70;7.47;;;;;;;;;;5093296;28;20230;-83
2020/12/25 04:05:38;;;;;;;10.47;7.40;;;;;;;;;;5092982;28;20627;-80
2020/12/25 04:08:03;;;;;;;12.20;8.17;;;;;;;;;;5092729;28;20175;-80
2020/12/25 04:10:28;;;;;;;13.13;8.07;;;;;;;;;;5092382;28;20266;-81
2020/12/25 04:12:54;;;;;;;9.50;6.83;;;;;;;;;;5092279;28;20173;-80
2020/12/25 04:15:19;;;;;;;9.70;7.40;;;;;;;;;;5092578;28;20178;-81
2020/12/25 04:17:44;;;;;;;9.40;7.23;;;;;;;;;;5092510;28;20605;-81
2020/12/25 04:20:10;;;;;;;9.07;7.20;;;;;;;;;;5093017;28;20205;-80
2020/12/25 04:22:35;;;;;;;8.23;6.70;;;;;;;;;;5092502;28;20216;-80
2020/12/25 04:25:00;;;;;;;9.03;6.47;;;;;;;;;;5092780;28;20177;-80
2020/12/25 04:27:26;;;;;;;8.43;6.73;;;;;;;;;;5092546;28;20169;-80
2020/12/25 04:29:51;;;;;;;6.73;6.03;;;;;;;;;;5092160;28;20170;-80
2020/12/25 04:32:16;;;;;;;8.23;6.83;;;;;;;;;;5092528;28;20209;-80
2020/12/25 04:34:42;;;;;;;7.07;6.20;;;;;;;;;;5092751;28;20189;-80
2020/12/25 04:37:07;;;;;;;9.53;6.63;;;;;;;;;;5092123;28;20174;-80
2020/12/25 04:39:32;;;;;;;7.60;6.10;;;;;;;;;;5074199;28;20296;-80
2020/12/25 04:41:58;;;;;;;8.33;6.83;;;;;;;;;;5092272;28;20539;-80
2020/12/25 04:44:23;;;;;;;6.73;5.93;;;;;;;;;;5092025;28;20181;-81
2020/12/25 04:46:52;;;;;;;6.10;5.17;;;;;;;;;;5092296;28;20174;-81
2020/12/25 04:49:18;;;;;;;8.57;6.00;;;;;;;;;;5095221;28;20170;-81
2020/12/25 04:51:44;;;;;;;7.20;5.13;;;;;;;;;;5096102;28;20175;-80
2020/12/25 04:54:09;;;;;;;5.87;5.20;;;;;;;;;;5096070;28;20167;-81
2020/12/25 04:56:34;;;;;;;6.10;5.20;;;;;;;;;;5095975;28;20174;-80
2020/12/25 04:59:00;;;;;;;7.30;5.37;;;;;;;;;;5096206;28;20175;-81
2020/12/25 05:01:26;;;;;;;6.97;5.60;;;;;;;;;;5095609;28;20229;-81
2020/12/25 05:03:52;;;;;;;6.40;5.30;;;;;;;;;;5096203;28;20194;-80
2020/12/25 05:06:18;;;;;;;6.90;5.37;;;;;;;;;;5095592;28;20206;-83
2020/12/25 05:08:47;;;;;;;6.93;5.77;;;;;;;;;;5096356;28;20244;-80
2020/12/25 05:11:13;;;;;;;6.37;5.07;;;;;;;;;;5096387;28;20181;-80
2020/12/25 05:13:42;;;;;;;5.67;5.17;;;;;;;;;;5095670;28;20167;-80
2020/12/25 05:16:08;;;;;;;7.03;5.20;;;;;;;;;;5095342;28;20241;-80
2020/12/25 05:18:34;;;;;;;5.87;5.03;;;;;;;;;;5095340;28;20182;-80
2020/12/25 05:21:08;;;;;;;5.70;5.17;;;;;;;;;;5095230;28;20567;-81
2020/12/25 05:23:34;;;;;;;7.40;5.70;;;;;;;;;;5095160;28;20344;-81
2020/12/25 05:26:00;;;;;;;7.47;5.70;;;;;;;;;;5095173;28;20167;-80
2020/12/25 05:28:29;;;;;;;8.40;5.83;;;;;;;;;;5095289;28;20269;-81
2020/12/25 05:30:56;;;;;;;7.77;5.90;;;;;;;;;;5095119;28;20640;-80
2020/12/25 05:33:22;;;;;;;8.17;5.70;;;;;;;;;;5095032;28;20509;-80
2020/12/25 05:35:51;;;;;;;8.60;6.30;;;;;;;;;;5095507;28;20181;-80
2020/12/25 05:38:17;;;;;;;8.50;6.47;;;;;;;;;;5095489;28;20518;-80
2020/12/25 05:40:42;;;;;;;6.20;5.60;;;;;;;;;;5094793;28;20171;-80
2020/12/25 05:43:08;;;;;;;6.40;5.70;;;;;;;;;;5094837;28;20167;-80
2020/12/25 05:45:38;;;;;;;7.93;5.93;;;;;;;;;;5095441;28;20257;-80
2020/12/25 05:48:04;;;;;;;9.13;6.50;;;;;;;;;;5095135;28;20656;-80
2020/12/25 05:50:30;;;;;;;9.37;7.20;;;;;;;;;;5095002;28;20319;-80
2020/12/25 05:52:55;;;;;;;9.83;6.63;;;;;;;;;;5094666;28;20185;-80
2020/12/25 05:55:21;;;;;;;8.10;6.57;;;;;;;;;;5095206;28;20490;-80
2020/12/25 05:57:50;;;;;;;8.23;6.97;;;;;;;;;;5095055;28;20162;-80
2020/12/25 06:00:16;;;;;;;8.30;6.40;;;;;;;;;;5094312;28;20175;-79
2020/12/25 06:02:44;;;;;;;7.27;6.23;;;;;;;;;;5094189;28;20241;-80
2020/12/25 06:05:12;;;;;;;8.73;7.10;;;;;;;;;;5094627;28;20187;-80
2020/12/25 06:07:43;;;;;;;7.50;6.70;;;;;;;;;;5094883;28;20171;-80
2020/12/25 06:10:13;;;;;;;7.00;6.10;;;;;;;;;;5094414;28;20490;-80
2020/12/25 06:12:41;;;;;;;8.17;7.03;;;;;;;;;;5094627;28;20178;-80
2020/12/25 06:15:08;;;;;;;7.47;6.47;;;;;;;;;;5094512;28;20262;-80
2020/12/25 06:17:36;;;;;;;7.73;6.93;;;;;;;;;;5094111;28;20253;-80
2020/12/25 06:20:03;;;;;;;7.60;6.70;;;;;;;;;;5094125;28;20625;-80
2020/12/25 06:22:31;;;;;;;7.83;6.90;;;;;;;;;;5094294;28;20667;-80
2020/12/25 06:24:58;;;;;;;8.67;6.83;;;;;;;;;;5094290;28;20170;-80
2020/12/25 06:27:27;;;;;;;8.63;7.27;;;;;;;;;;5094012;28;20613;-83
2020/12/25 06:29:55;;;;;;;9.67;7.50;;;;;;;;;;5094458;28;20628;-80
2020/12/25 06:32:22;;;;;;;9.53;7.80;;;;;;;;;;5094389;28;20174;-79
2020/12/25 06:34:48;;;;;;;8.90;7.57;;;;;;;;;;5094189;28;20177;-80
2020/12/25 06:37:14;;;;;;;9.13;8.00;;;;;;;;;;5093856;28;20243;-80
2020/12/25 06:39:49;;;;;;;9.43;8.07;;;;;;;;;;5094074;28;20664;-80
2020/12/25 06:42:19;;;;;;;8.67;7.40;;;;;;;;;;5093906;28;20209;-80
2020/12/25 06:44:47;;;;;;;9.70;7.63;;;;;;;;;;5094168;28;20629;-80
2020/12/25 06:47:25;;;;;;;8.00;7.20;;;;;;;;;;5094060;28;20178;-80
2020/12/25 06:49:51;;;;;;;9.07;7.60;;;;;;;;;;5093934;28;20490;-80
2020/12/25 06:52:24;;;;;;;8.40;7.00;;;;;;;;;;5094008;28;20178;-80
2020/12/25 06:54:49;;;;;;;9.57;8.27;;;;;;;;;;5093570;28;20170;-80
2020/12/25 06:57:15;;;;;;;9.93;7.97;;;;;;;;;;5093884;28;20174;-80
2020/12/25 06:59:41;;;;;;;10.67;9.07;;;;;;;;;;5093600;28;20213;-80
2020/12/25 07:02:06;;;;;;;9.47;7.97;;;;;;;;;;5093131;28;20326;-79
2020/12/25 07:04:32;;;;;;;15.87;11.97;;;;;;;;;;5093482;28;20182;-80
2020/12/25 07:07:02;;;;;;;14.50;10.40;;;;;;;;;;5093450;28;20181;-81
2020/12/25 07:09:35;;;;;;;9.37;8.20;;;;;;;;;;5093292;28;20202;-80
2020/12/25 07:12:03;;;;;;;10.33;7.70;;;;;;;;;;5092760;28;20275;-81
2020/12/25 07:14:28;;;;;;;11.97;9.03;;;;;;;;;;5093004;28;20568;-81
2020/12/25 07:16:54;;;;;;;34.33;20.17;;;;;;;;;;5093209;28;20167;-80
2020/12/25 07:19:19;;;;;;;11.27;9.10;;;;;;;;;;5093055;28;20182;-80
2020/12/25 07:21:44;;;;;;;11.10;8.20;;;;;;;;;;5093151;28;20243;-80
2020/12/25 07:24:10;;;;;;;10.47;8.67;;;;;;;;;;5092868;28;20174;-80
2020/12/25 07:26:35;;;;;;;9.97;7.80;;;;;;;;;;5092842;28;20174;-80
2020/12/25 07:29:02;;;;;;;12.10;9.10;;;;;;;;;;5093070;28;20167;-80
2020/12/25 07:31:27;;;;;;;10.67;8.50;;;;;;;;;;5093017;28;20174;-80
2020/12/25 07:33:58;;;;;;;8.23;7.37;;;;;;;;;;5092644;28;20173;-80
2020/12/25 07:36:24;;;;;;;28.47;18.90;;;;;;;;;;5092660;28;20163;-80
2020/12/25 07:38:59;;;;;;;21.03;14.87;;;;;;;;;;5092650;28;20180;-81
2020/12/25 07:41:25;;;;;;;20.37;14.80;;;;;;;;;;5093173;28;20194;-80
2020/12/25 07:43:53;;;;;;;11.87;9.50;;;;;;;;;;5092904;28;20171;-80
2020/12/25 07:46:19;;;;;;;14.97;11.13;;;;;;;;;;5092687;28;20197;-80
2020/12/25 07:48:44;;;;;;;10.23;8.83;;;;;;;;;;5092874;28;20162;-80
2020/12/25 07:51:10;;;;;;;10.03;8.77;;;;;;;;;;5092550;28;20196;-80
2020/12/25 07:53:36;;;;;;;11.13;9.60;;;;;;;;;;5092844;28;20175;-80
2020/12/25 07:56:05;;;;;;;10.87;8.90;;;;;;;;;;5092569;28;20227;-82
2020/12/25 07:58:31;;;;;;;9.43;7.90;;;;;;;;;;5093005;28;20249;-82
2020/12/25 08:00:56;;;;;;;11.20;8.47;;;;;;;;;;5092703;28;20205;-80
2020/12/25 08:03:22;;;;;;;11.53;9.43;;;;;;;;;;5092968;28;20158;-80
2020/12/25 08:05:48;;;;;;;12.33;9.83;;;;;;;;;;5092297;28;20186;-80
2020/12/25 08:08:14;;;;;;;11.50;9.33;;;;;;;;;;5092645;28;20166;-80
2020/12/25 08:10:41;;;;;;;17.07;13.33;;;;;;;;;;5092935;28;20678;-80
2020/12/25 08:13:07;;;;;;;17.57;12.23;;;;;;;;;;5092841;28;20212;-81
2020/12/25 08:15:36;;;;;;;14.67;11.30;;;;;;;;;;5092636;28;20178;-82
2020/12/25 08:18:03;;;;;;;12.17;9.53;;;;;;;;;;5092390;28;20174;-80
2020/12/25 08:20:28;;;;;;;13.00;8.90;;;;;;;;;;5092905;28;20168;-80
2020/12/25 08:22:57;;;;;;;20.17;10.83;;;;;;;;;;5093322;28;20209;-79
2020/12/25 08:25:22;;;;;;;21.40;12.10;;;;;;;;;;5096874;28;20185;-80
2020/12/25 08:27:48;;;;;;;31.90;16.47;;;;;;;;;;5096558;28;20605;-80
2020/12/25 08:30:13;;;;;;;23.13;14.00;;;;;;;;;;5096215;28;20170;-80
2020/12/25 08:32:40;;;;;;;20.00;13.60;;;;;;;;;;5096500;28;20174;-80
2020/12/25 08:35:08;;;;;;;22.27;14.37;;;;;;;;;;5096132;28;20254;-80
2020/12/25 08:37:33;;;;;;;13.13;10.03;;;;;;;;;;5096652;28;20174;-80
2020/12/25 08:40:14;;;;;;;13.37;9.97;;;;;;;;;;5096310;28;20193;-81
2020/12/25 08:42:39;;;;;;;11.97;8.77;;;;;;;;;;5095928;28;20198;-81
2020/12/25 08:45:05;;;;;;;12.90;9.43;;;;;;;;;;5096568;28;20167;-83
2020/12/25 08:47:30;;;;;;;15.67;9.13;;;;;;;;;;5096414;28;20232;-80
2020/12/25 08:49:56;;;;;;;12.43;9.70;;;;;;;;;;5096171;28;20173;-80
2020/12/25 08:52:21;;;;;;;9.73;8.33;;;;;;;;;;5096054;28;20601;-80
2020/12/25 08:54:54;;;;;;;10.73;8.57;;;;;;;;;;5096043;28;20167;-80
2020/12/25 08:57:19;;;;;;;11.50;8.67;;;;;;;;;;5095797;28;20235;-80
2020/12/25 08:59:44;;;;;;;13.13;8.73;;;;;;;;;;5095603;28;20190;-80
2020/12/25 09:02:10;;;;;;;9.90;7.73;;;;;;;;;;5095370;28;20234;-81
2020/12/25 09:04:35;;;;;;;8.53;7.60;;;;;;;;;;5095785;28;20191;-80
2020/12/25 09:07:00;;;;;;;8.97;8.07;;;;;;;;;;5090049;28;20185;-80
2020/12/25 09:09:26;;;;;;;10.03;8.50;;;;;;;;;;5052106;28;20175;-80
2020/12/25 09:11:51;;;;;;;9.40;8.10;;;;;;;;;;5075041;28;20175;-80
2020/12/25 09:14:16;;;;;;;9.17;8.20;;;;;;;;;;5074962;28;20706;-80
2020/12/25 09:16:42;;;;;;;11.07;8.10;;;;;;;;;;5067207;28;20167;-80
2020/12/25 09:19:07;;;;;;;8.63;7.53;;;;;;;;;;5059679;28;20179;-83
2020/12/25 09:21:33;;;;;;;9.97;7.97;;;;;;;;;;5063015;28;20206;-80
2020/12/25 09:23:58;;;;;;;10.03;9.03;;;;;;;;;;5063466;28;20183;-79
2020/12/25 09:26:23;;;;;;;8.57;7.60;;;;;;;;;;5045482;28;20171;-80
2020/12/25 09:28:49;;;;;;;8.00;7.20;;;;;;;;;;5064561;28;20170;-80
2020/12/25 09:31:14;;;;;;;9.17;8.20;;;;;;;;;;5063003;28;20614;-79
2020/12/25 09:33:40;;;;;;;9.83;8.83;;;;;;;;;;5062758;28;20225;-81
2020/12/25 09:36:06;;;;;;;10.70;8.70;;;;;;;;;;5064782;28;20168;-79
2020/12/25 09:38:32;;;;;;;11.13;9.13;;;;;;;;;;5068461;28;20667;-79
2020/12/25 09:40:57;;;;;;;10.37;9.27;;;;;;;;;;5064322;28;20263;-79
2020/12/25 09:43:22;;;;;;;8.90;8.00;;;;;;;;;;5063110;28;20202;-80
2020/12/25 09:45:48;;;;;;;10.63;9.63;;;;;;;;;;5064778;28;20171;-80
2020/12/25 09:48:13;;;;;;;8.67;7.87;;;;;;;;;;5061973;28;20194;-81
2020/12/25 09:50:39;;;;;;;10.23;8.13;;;;;;;;;;5057470;28;20179;-84
2020/12/25 09:53:04;;;;;;;8.63;7.73;;;;;;;;;;5061505;28;20236;-80
2020/12/25 09:55:35;;;;;;;6.93;6.23;;;;;;;;;;5061964;28;20175;-79
2020/12/25 09:58:00;;;;;;;7.73;6.50;;;;;;;;;;5062237;28;20254;-81
2020/12/25 10:00:26;;;;;;;7.60;6.67;;;;;;;;;;5063800;28;20257;-80
2020/12/25 10:02:51;;;;;;;8.90;6.43;;;;;;;;;;5062487;28;20263;-80
2020/12/25 10:05:16;;;;;;;9.37;6.23;;;;;;;;;;5062775;28;20191;-80
2020/12/25 10:07:42;;;;;;;7.37;6.57;;;;;;;;;;5063247;28;20171;-81
2020/12/25 10:10:08;;;;;;;6.60;5.90;;;;;;;;;;5063824;28;20172;-81
2020/12/25 10:12:33;;;;;;;6.50;5.53;;;;;;;;;;5064322;28;20228;-80
2020/12/25 10:14:58;;;;;;;7.13;6.43;;;;;;;;;;5073951;28;20174;-81
2020/12/25 10:17:24;;;;;;;21.07;15.37;;;;;;;;;;5072567;28;20198;-80
2020/12/25 10:19:50;;;;;;;30.50;20.80;;;;;;;;;;5072864;28;20163;-81
2020/12/25 10:22:16;;;;;;;23.80;17.70;;;;;;;;;;5072526;28;20195;-80
2020/12/25 10:24:41;;;;;;;33.03;22.23;;;;;;;;;;5072430;28;20270;-82
2020/12/25 10:27:06;;;;;;;19.17;15.77;;;;;;;;;;5072547;28;20167;-80
2020/12/25 10:29:32;;;;;;;16.00;11.97;;;;;;;;;;5072918;28;20329;-80
2020/12/25 10:31:57;;;;;;;15.83;9.67;;;;;;;;;;5072967;28;20175;-79
2020/12/25 10:34:23;;;;;;;12.00;9.27;;;;;;;;;;5073504;28;20176;-81
2020/12/25 10:36:48;;;;;;;9.90;8.13;;;;;;;;;;5073081;28;20179;-80
2020/12/25 10:39:14;;;;;;;9.90;8.13;;;;;;;;;;5072009;28;20176;-82
2020/12/25 10:41:39;;;;;;;7.93;7.07;;;;;;;;;;5072251;28;20596;-81
2020/12/25 10:44:05;;;;;;;15.90;10.27;;;;;;;;;;5071930;28;20694;-81
2020/12/25 10:46:30;;;;;;;32.00;16.63;;;;;;;;;;5070831;28;20636;-81
2020/12/25 10:48:56;;;;;;;27.47;14.23;;;;;;;;;;5071476;28;20266;-81
2020/12/25 10:51:21;;;;;;;16.70;10.23;;;;;;;;;;5071684;28;20236;-80
2020/12/25 10:53:47;;;;;;;8.67;6.73;;;;;;;;;;5071283;28;20705;-81
2020/12/25 10:56:22;;;;;;;15.40;11.20;;;;;;;;;;5071885;28;20630;-80
2020/12/25 10:58:48;;;;;;;15.33;11.60;;;;;;;;;;5079920;28;20342;-79
2020/12/25 11:01:26;;;;;;;10.17;8.43;;;;;;;;;;5092410;28;20269;-79
2020/12/25 11:03:52;;;;;;;40.77;19.07;;;;;;;;;;5092734;28;20185;-80
2020/12/25 11:06:19;;;;;;;36.90;15.67;;;;;;;;;;5093525;28;20182;-80
2020/12/25 11:08:48;;;;;;;44.23;20.80;;;;;;;;;;5093788;28;20182;-79
2020/12/25 11:11:21;;;;;;;15.50;10.20;;;;;;;;;;5094983;28;20171;-79
2020/12/25 11:13:47;;;;;;;21.83;14.93;;;;;;;;;;5094646;28;20173;-79
2020/12/25 11:16:19;;;;;;;22.00;16.27;;;;;;;;;;5091073;28;20245;-79
2020/12/25 11:18:44;;;;;;;13.07;10.13;;;;;;;;;;5054660;28;20160;-79
2020/12/25 11:21:16;;;;;;;15.43;11.10;;;;;;;;;;5054383;28;20612;-79
2020/12/25 11:23:42;;;;;;;22.33;14.73;;;;;;;;;;5053986;28;20160;-79
2020/12/25 11:26:07;;;;;;;18.30;14.20;;;;;;;;;;5068841;28;20522;-79
2020/12/25 11:28:32;;;;;;;20.10;15.20;;;;;;;;;;5073148;28;20274;-79
2020/12/25 11:30:58;;;;;;;15.93;12.43;;;;;;;;;;5074414;28;20167;-79
2020/12/25 11:33:26;;;;;;;13.83;11.00;;;;;;;;;;5073827;28;20171;-79
2020/12/25 11:35:51;;;;;;;12.47;9.60;;;;;;;;;;5074128;28;20181;-79
2020/12/25 11:38:17;;;;;;;12.37;9.30;;;;;;;;;;5072795;28;20595;-81
2020/12/25 11:40:42;;;;;;;12.80;9.57;;;;;;;;;;5053388;28;20637;-79
2020/12/25 11:43:08;;;;;;;11.07;8.67;;;;;;;;;;5071531;28;20209;-80
2020/12/25 11:45:33;;;;;;;15.53;9.73;;;;;;;;;;5071556;28;20258;-80
2020/12/25 11:47:58;;;;;;;15.40;9.07;;;;;;;;;;5071538;28;20171;-79
2020/12/25 11:50:24;;;;;;;15.27;9.67;;;;;;;;;;5071726;28;20205;-80
2020/12/25 11:52:49;;;;;;;14.97;10.33;;;;;;;;;;5071177;28;20186;-79
2020/12/25 11:55:14;;;;;;;14.33;9.90;;;;;;;;;;5071579;28;20175;-80
2020/12/25 11:57:40;;;;;;;11.90;8.23;;;;;;;;;;5071140;28;20621;-79
2020/12/25 12:00:06;;;;;;;15.93;9.33;;;;;;;;;;5071233;28;20225;-79
2020/12/25 12:02:31;;;;;;;9.90;7.60;;;;;;;;;;5071780;28;20234;-79
2020/12/25 12:04:57;;;;;;;10.17;8.50;;;;;;;;;;5073435;28;20191;-78
2020/12/25 12:07:23;;;;;;;8.63;6.97;;;;;;;;;;5073682;28;20179;-79
2020/12/25 12:09:48;;;;;;;9.63;8.07;;;;;;;;;;5073990;28;20182;-78
2020/12/25 12:12:13;;;;;;;9.37;7.50;;;;;;;;;;5073898;28;20175;-79
2020/12/25 12:14:39;;;;;;;10.90;7.27;;;;;;;;;;5073036;28;20171;-79
2020/12/25 12:17:04;;;;;;;22.17;11.27;;;;;;;;;;5071427;28;20171;-80
2020/12/25 12:19:29;;;;;;;13.90;8.57;;;;;;;;;;5071279;28;20174;-80
2020/12/25 12:21:55;;;;;;;19.50;10.33;;;;;;;;;;5070928;28;20301;-80
2020/12/25 12:24:20;;;;;;;13.97;8.57;;;;;;;;;;5071055;28;20175;-80
2020/12/25 12:26:49;;;;;;;12.43;8.13;;;;;;;;;;5071037;28;20520;-81
2020/12/25 12:29:14;;;;;;;22.93;15.17;;;;;;;;;;5071369;28;20182;-80
2020/12/25 12:31:39;;;;;;;16.53;12.77;;;;;;;;;;5071364;28;20179;-80
2020/12/25 12:34:05;;;;;;;15.90;12.77;;;;;;;;;;5071160;28;20616;-80
2020/12/25 12:36:30;;;;;;;12.73;9.33;;;;;;;;;;5070956;28;20588;-80
2020/12/25 12:38:55;;;;;;;11.03;8.17;;;;;;;;;;5070634;28;20175;-80
2020/12/25 12:41:25;;;;;;;12.70;9.23;;;;;;;;;;5070429;28;20252;-80
2020/12/25 12:43:50;;;;;;;12.63;8.27;;;;;;;;;;5071241;28;20179;-80
2020/12/25 12:46:16;;;;;;;15.83;10.30;;;;;;;;;;5071390;28;20618;-80
2020/12/25 12:48:42;;;;;;;11.83;8.57;;;;;;;;;;5071129;28;20175;-80
2020/12/25 12:51:07;;;;;;;14.27;9.73;;;;;;;;;;5070992;28;20176;-80
2020/12/25 12:53:33;;;;;;;10.07;8.33;;;;;;;;;;5070524;28;20171;-81
2020/12/25 12:55:58;;;;;;;11.27;8.83;;;;;;;;;;5052752;28;20233;-80
2020/12/25 12:58:23;;;;;;;9.27;8.27;;;;;;;;;;5071513;28;20182;-81
2020/12/25 13:00:49;;;;;;;9.40;7.73;;;;;;;;;;5070962;28;20527;-81
2020/12/25 13:03:14;;;;;;;13.03;10.47;;;;;;;;;;5071346;28;20567;-80
2020/12/25 13:05:40;;;;;;;19.87;13.53;;;;;;;;;;5070530;28;20199;-80
2020/12/25 13:08:06;;;;;;;21.77;14.43;;;;;;;;;;5070735;28;20305;-80
2020/12/25 13:10:31;;;;;;;12.37;10.00;;;;;;;;;;5074808;28;20261;-80
2020/12/25 13:12:56;;;;;;;17.30;12.47;;;;;;;;;;5077180;28;20178;-80
2020/12/25 13:15:22;;;;;;;15.70;12.13;;;;;;;;;;5076661;28;20502;-80
2020/12/25 13:17:47;;;;;;;11.37;8.57;;;;;;;;;;5076291;28;20167;-80
2020/12/25 13:20:12;;;;;;;14.67;10.13;;;;;;;;;;5076632;28;20176;-80
2020/12/25 13:22:38;;;;;;;18.17;12.63;;;;;;;;;;5076093;28;20206;-80
2020/12/25 13:25:03;;;;;;;13.30;10.33;;;;;;;;;;5077311;28;20533;-80
2020/12/25 13:27:28;;;;;;;16.40;10.83;;;;;;;;;;5076768;28;20175;-80
2020/12/25 13:29:54;;;;;;;36.63;22.03;;;;;;;;;;5076348;28;20194;-80
2020/12/25 13:32:19;;;;;;;23.80;13.77;;;;;;;;;;5076350;28;20201;-80
2020/12/25 13:34:44;;;;;;;24.67;13.50;;;;;;;;;;5076859;28;20167;-81
2020/12/25 13:37:10;;;;;;;22.93;13.37;;;;;;;;;;5076788;28;20194;-80
2020/12/25 13:39:35;;;;;;;20.43;12.90;;;;;;;;;;5075886;28;20179;-80
2020/12/25 13:42:01;;;;;;;20.10;14.00;;;;;;;;;;5075819;28;20206;-80
2020/12/25 13:44:26;;;;;;;17.30;11.70;;;;;;;;;;5076735;28;20274;-81
2020/12/25 13:46:51;;;;;;;17.80;12.43;;;;;;;;;;5074126;28;20179;-81
2020/12/25 13:49:17;;;;;;;13.53;10.10;;;;;;;;;;5075510;28;20179;-81
2020/12/25 13:51:42;;;;;;;18.57;12.87;;;;;;;;;;5076144;28;20530;-80
2020/12/25 13:54:07;;;;;;;13.47;10.37;;;;;;;;;;5075650;28;20240;-80
2020/12/25 13:56:35;;;;;;;15.03;10.80;;;;;;;;;;5076560;28;20179;-80
2020/12/25 13:59:00;;;;;;;13.47;9.97;;;;;;;;;;5076103;28;20179;-80
2020/12/25 14:01:25;;;;;;;16.90;10.97;;;;;;;;;;5075947;28;20223;-80
2020/12/25 14:03:51;;;;;;;21.27;13.23;;;;;;;;;;5076267;28;20162;-81
2020/12/25 14:06:16;;;;;;;19.60;12.90;;;;;;;;;;5076102;28;20167;-80
2020/12/25 14:08:42;;;;;;;14.10;10.50;;;;;;;;;;5076221;28;20175;-81
2020/12/25 14:11:07;;;;;;;17.87;11.30;;;;;;;;;;5075789;28;20167;-80
2020/12/25 14:13:36;;;;;;;15.70;10.80;;;;;;;;;;5075886;28;20164;-80
2020/12/25 14:16:02;;;;;;;12.47;8.33;;;;;;;;;;5075570;28;20182;-80
2020/12/25 14:18:27;;;;;;;15.70;10.80;;;;;;;;;;5057211;28;20175;-81
2020/12/25 14:20:53;;;;;;;18.30;13.40;;;;;;;;;;5056860;28;20179;-81
2020/12/25 14:23:18;;;;;;;21.87;13.30;;;;;;;;;;5075192;28;20215;-81
2020/12/25 14:25:44;;;;;;;23.10;14.00;;;;;;;;;;5074880;28;20677;-81
2020/12/25 14:28:09;;;;;;;17.93;12.27;;;;;;;;;;5075230;28;20171;-80